sensor_id;sensor_type;location;lat;lon;timestamp;pressure;altitude;pressure_sealevel;temperature;humidity
69630;BME280;56857;52.212;5.496;2023-04-08T00:01:25;102362.78;;;7.56;100.00
69630;BME280;56857;52.212;5.496;2023-04-08T00:03:50;102364.47;;;7.57;100.00
69630;BME280;56857;52.212;5.496;2023-04-08T00:06:15;102367.81;;;7.59;100.00
69630;BME280;56857;52.212;5.496;2023-04-08T00:08:41;102369.53;;;7.60;100.00
69630;BME280;56857;52.212;5.496;2023-04-08T00:11:06;102366.91;;;7.60;100.00
69630;BME280;56857;52.212;5.496;2023-04-08T00:13:32;102366.78;;;7.62;100.00
69630;BME280;56857;52.212;5.496;2023-04-08T00:15:57;102363.19;;;7.63;100.00
69630;BME280;56857;52.212;5.496;2023-04-08T00:18:22;102364.88;;;7.64;100.00
69630;BME280;56857;52.212;5.496;2023-04-08T00:20:48;102364.88;;;7.64;100.00
69630;BME280;56857;52.212;5.496;2023-04-08T00:23:13;102363.06;;;7.64;100.00
69630;BME280;56857;52.212;5.496;2023-04-08T00:25:38;102366.53;;;7.65;100.00
69630;BME280;56857;52.212;5.496;2023-04-08T00:28:04;102371.81;;;7.65;100.00
69630;BME280;56857;52.212;5.496;2023-04-08T00:30:29;102370.88;;;7.66;100.00
69630;BME280;56857;52.212;5.496;2023-04-08T00:32:55;102365.47;;;7.68;100.00
69630;BME280;56857;52.212;5.496;2023-04-08T00:35:20;102367.06;;;7.70;100.00
69630;BME280;56857;52.212;5.496;2023-04-08T00:37:45;102366.31;;;7.68;100.00
69630;BME280;56857;52.212;5.496;2023-04-08T00:40:12;102368.97;;;7.68;100.00
69630;BME280;56857;52.212;5.496;2023-04-08T00:42:37;102369.94;;;7.67;100.00
69630;BME280;56857;52.212;5.496;2023-04-08T00:45:03;102377.09;;;7.65;100.00
69630;BME280;56857;52.212;5.496;2023-04-08T00:47:29;102381.44;;;7.66;100.00
69630;BME280;56857;52.212;5.496;2023-04-08T00:49:55;102377.94;;;7.65;100.00
69630;BME280;56857;52.212;5.496;2023-04-08T00:52:20;102379.03;;;7.63;100.00
69630;BME280;56857;52.212;5.496;2023-04-08T00:54:46;102385.25;;;7.62;100.00
69630;BME280;56857;52.212;5.496;2023-04-08T00:57:11;102373.84;;;7.61;100.00
69630;BME280;56857;52.212;5.496;2023-04-08T00:59:36;102379.03;;;7.63;100.00
69630;BME280;56857;52.212;5.496;2023-04-08T01:02:11;102378.06;;;7.64;100.00
69630;BME280;56857;52.212;5.496;2023-04-08T01:07:20;102389.47;;;7.64;100.00
69630;BME280;56857;52.212;5.496;2023-04-08T01:09:50;102380.56;;;7.65;100.00
69630;BME280;56857;52.212;5.496;2023-04-08T01:12:20;102387.66;;;7.65;100.00
69630;BME280;56857;52.212;5.496;2023-04-08T01:14:47;102385.84;;;7.65;100.00
69630;BME280;56857;52.212;5.496;2023-04-08T01:17:17;102388.72;;;7.62;100.00
69630;BME280;56857;52.212;5.496;2023-04-08T01:19:44;102391.72;;;7.58;100.00
69630;BME280;56857;52.212;5.496;2023-04-08T01:24:46;102390.13;;;7.55;100.00
69630;BME280;56857;52.212;5.496;2023-04-08T01:27:13;102394.44;;;7.56;100.00
69630;BME280;56857;52.212;5.496;2023-04-08T01:29:39;102384.75;;;7.57;100.00
69630;BME280;56857;52.212;5.496;2023-04-08T01:32:06;102390.88;;;7.57;100.00
69630;BME280;56857;52.212;5.496;2023-04-08T01:34:33;102393.72;;;7.54;100.00
69630;BME280;56857;52.212;5.496;2023-04-08T01:37:01;102384.09;;;7.53;100.00
69630;BME280;56857;52.212;5.496;2023-04-08T01:39:27;102398.19;;;7.54;100.00
69630;BME280;56857;52.212;5.496;2023-04-08T01:41:54;102393.59;;;7.56;100.00
69630;BME280;56857;52.212;5.496;2023-04-08T01:44:21;102387.50;;;7.55;100.00
69630;BME280;56857;52.212;5.496;2023-04-08T01:46:48;102404.91;;;7.58;100.00
69630;BME280;56857;52.212;5.496;2023-04-08T01:49:15;102393.81;;;7.53;100.00
69630;BME280;56857;52.212;5.496;2023-04-08T01:51:42;102402.81;;;7.50;100.00
69630;BME280;56857;52.212;5.496;2023-04-08T01:54:08;102403.66;;;7.51;100.00
69630;BME280;56857;52.212;5.496;2023-04-08T01:56:36;102402.94;;;7.49;100.00
69630;BME280;56857;52.212;5.496;2023-04-08T01:59:08;102396.19;;;7.45;100.00
69630;BME280;56857;52.212;5.496;2023-04-08T02:01:34;102403.38;;;7.42;100.00
69630;BME280;56857;52.212;5.496;2023-04-08T02:04:00;102402.41;;;7.43;100.00
69630;BME280;56857;52.212;5.496;2023-04-08T02:06:27;102403.50;;;7.41;100.00
69630;BME280;56857;52.212;5.496;2023-04-08T02:08:55;102404.56;;;7.38;100.00
69630;BME280;56857;52.212;5.496;2023-04-08T02:11:21;102401.16;;;7.36;100.00
69630;BME280;56857;52.212;5.496;2023-04-08T02:13:47;102402.56;;;7.29;100.00
69630;BME280;56857;52.212;5.496;2023-04-08T02:16:18;102401.59;;;7.30;100.00
69630;BME280;56857;52.212;5.496;2023-04-08T02:18:54;102407.00;;;7.29;100.00
69630;BME280;56857;52.212;5.496;2023-04-08T02:21:21;102398.47;;;7.25;100.00
69630;BME280;56857;52.212;5.496;2023-04-08T02:23:50;102406.59;;;7.22;100.00
69630;BME280;56857;52.212;5.496;2023-04-08T02:26:16;102399.75;;;7.19;100.00
69630;BME280;56857;52.212;5.496;2023-04-08T02:28:42;102405.03;;;7.19;100.00
69630;BME280;56857;52.212;5.496;2023-04-08T02:31:11;102407.75;;;7.18;100.00
69630;BME280;56857;52.212;5.496;2023-04-08T02:33:39;102413.16;;;7.16;100.00
69630;BME280;56857;52.212;5.496;2023-04-08T02:36:04;102409.69;;;7.16;100.00
69630;BME280;56857;52.212;5.496;2023-04-08T02:38:30;102407.03;;;7.16;100.00
69630;BME280;56857;52.212;5.496;2023-04-08T02:40:56;102409.97;;;7.11;100.00
69630;BME280;56857;52.212;5.496;2023-04-08T02:43:22;102411.91;;;7.09;100.00
69630;BME280;56857;52.212;5.496;2023-04-08T02:45:47;102423.38;;;7.08;100.00
69630;BME280;56857;52.212;5.496;2023-04-08T02:48:13;102416.94;;;7.00;100.00
69630;BME280;56857;52.212;5.496;2023-04-08T02:50:38;102419.31;;;6.91;100.00
69630;BME280;56857;52.212;5.496;2023-04-08T02:53:04;102422.34;;;6.85;100.00
69630;BME280;56857;52.212;5.496;2023-04-08T02:55:29;102414.53;;;6.84;100.00
69630;BME280;56857;52.212;5.496;2023-04-08T02:57:54;102415.50;;;6.83;100.00
69630;BME280;56857;52.212;5.496;2023-04-08T03:00:20;102419.41;;;6.77;100.00
69630;BME280;56857;52.212;5.496;2023-04-08T03:02:46;102425.72;;;6.74;100.00
69630;BME280;56857;52.212;5.496;2023-04-08T03:05:11;102427.31;;;6.77;100.00
69630;BME280;56857;52.212;5.496;2023-04-08T03:07:36;102428.25;;;6.76;100.00
69630;BME280;56857;52.212;5.496;2023-04-08T03:10:02;102430.91;;;6.76;100.00
69630;BME280;56857;52.212;5.496;2023-04-08T03:12:28;102431.84;;;6.75;100.00
69630;BME280;56857;52.212;5.496;2023-04-08T03:14:53;102436.16;;;6.63;100.00
69630;BME280;56857;52.212;5.496;2023-04-08T03:17:19;102434.69;;;6.59;100.00
69630;BME280;56857;52.212;5.496;2023-04-08T03:19:45;102431.41;;;6.56;100.00
69630;BME280;56857;52.212;5.496;2023-04-08T03:22:12;102435.94;;;6.54;100.00
69630;BME280;56857;52.212;5.496;2023-04-08T03:24:37;102439.63;;;6.51;100.00
69630;BME280;56857;52.212;5.496;2023-04-08T03:27:03;102438.44;;;6.42;100.00
69630;BME280;56857;52.212;5.496;2023-04-08T03:29:28;102433.78;;;6.33;100.00
69630;BME280;56857;52.212;5.496;2023-04-08T03:31:53;102430.72;;;6.26;100.00
69630;BME280;56857;52.212;5.496;2023-04-08T03:34:19;102429.34;;;6.21;100.00
69630;BME280;56857;52.212;5.496;2023-04-08T03:36:44;102436.72;;;6.16;100.00
69630;BME280;56857;52.212;5.496;2023-04-08T03:39:09;102429.97;;;6.12;100.00
69630;BME280;56857;52.212;5.496;2023-04-08T03:41:35;102439.00;;;6.08;100.00
69630;BME280;56857;52.212;5.496;2023-04-08T03:44:01;102442.25;;;5.98;100.00
69630;BME280;56857;52.212;5.496;2023-04-08T03:46:26;102447.81;;;5.79;100.00
69630;BME280;56857;52.212;5.496;2023-04-08T03:48:52;102443.94;;;5.58;100.00
69630;BME280;56857;52.212;5.496;2023-04-08T03:51:17;102441.78;;;5.50;100.00
69630;BME280;56857;52.212;5.496;2023-04-08T03:53:42;102450.72;;;5.48;100.00
69630;BME280;56857;52.212;5.496;2023-04-08T03:56:08;102438.91;;;5.41;100.00
69630;BME280;56857;52.212;5.496;2023-04-08T03:58:33;102453.28;;;5.35;100.00
69630;BME280;56857;52.212;5.496;2023-04-08T04:00:58;102445.56;;;5.32;100.00
69630;BME280;56857;52.212;5.496;2023-04-08T04:03:24;102448.38;;;5.29;100.00
69630;BME280;56857;52.212;5.496;2023-04-08T04:05:49;102447.94;;;5.22;100.00
69630;BME280;56857;52.212;5.496;2023-04-08T04:08:15;102444.84;;;5.16;100.00
69630;BME280;56857;52.212;5.496;2023-04-08T04:10:40;102445.41;;;5.06;100.00
69630;BME280;56857;52.212;5.496;2023-04-08T04:13:06;102450.00;;;5.03;100.00
69630;BME280;56857;52.212;5.496;2023-04-08T04:15:31;102448.41;;;5.00;100.00
69630;BME280;56857;52.212;5.496;2023-04-08T04:17:57;102446.25;;;4.93;100.00
69630;BME280;56857;52.212;5.496;2023-04-08T04:20:22;102453.31;;;4.92;100.00
69630;BME280;56857;52.212;5.496;2023-04-08T04:22:47;102455.94;;;4.92;100.00
69630;BME280;56857;52.212;5.496;2023-04-08T04:25:13;102449.06;;;4.90;100.00
69630;BME280;56857;52.212;5.496;2023-04-08T04:27:38;102456.28;;;4.86;100.00
69630;BME280;56857;52.212;5.496;2023-04-08T04:30:04;102464.38;;;4.83;100.00
69630;BME280;56857;52.212;5.496;2023-04-08T04:32:30;102461.72;;;4.83;100.00
69630;BME280;56857;52.212;5.496;2023-04-08T04:34:55;102468.78;;;4.82;100.00
69630;BME280;56857;52.212;5.496;2023-04-08T04:37:21;102467.06;;;4.81;100.00
69630;BME280;56857;52.212;5.496;2023-04-08T04:39:46;102471.59;;;4.79;100.00
69630;BME280;56857;52.212;5.496;2023-04-08T04:42:11;102487.34;;;4.79;100.00
69630;BME280;56857;52.212;5.496;2023-04-08T04:44:37;102482.16;;;4.78;100.00
69630;BME280;56857;52.212;5.496;2023-04-08T04:47:02;102487.53;;;4.76;100.00
69630;BME280;56857;52.212;5.496;2023-04-08T04:49:28;102490.34;;;4.73;100.00
69630;BME280;56857;52.212;5.496;2023-04-08T04:51:53;102490.59;;;4.69;100.00
69630;BME280;56857;52.212;5.496;2023-04-08T04:54:18;102496.97;;;4.64;100.00
69630;BME280;56857;52.212;5.496;2023-04-08T04:56:43;102498.09;;;4.60;100.00
69630;BME280;56857;52.212;5.496;2023-04-08T04:59:10;102498.16;;;4.59;100.00
69630;BME280;56857;52.212;5.496;2023-04-08T05:01:35;102501.81;;;4.56;100.00
69630;BME280;56857;52.212;5.496;2023-04-08T05:04:00;102505.28;;;4.57;100.00
69630;BME280;56857;52.212;5.496;2023-04-08T05:06:26;102501.91;;;4.55;100.00
69630;BME280;56857;52.212;5.496;2023-04-08T05:08:51;102505.63;;;4.51;100.00
69630;BME280;56857;52.212;5.496;2023-04-08T05:11:17;102510.31;;;4.46;100.00
69630;BME280;56857;52.212;5.496;2023-04-08T05:13:43;102520.72;;;4.47;100.00
69630;BME280;56857;52.212;5.496;2023-04-08T05:16:09;102521.50;;;4.49;100.00
69630;BME280;56857;52.212;5.496;2023-04-08T05:18:34;102523.53;;;4.44;100.00
69630;BME280;56857;52.212;5.496;2023-04-08T05:20:59;102531.34;;;4.46;100.00
69630;BME280;56857;52.212;5.496;2023-04-08T05:23:25;102532.00;;;4.49;100.00
69630;BME280;56857;52.212;5.496;2023-04-08T05:25:50;102529.28;;;4.51;100.00
69630;BME280;56857;52.212;5.496;2023-04-08T05:28:15;102528.44;;;4.50;100.00
69630;BME280;56857;52.212;5.496;2023-04-08T05:30:41;102528.34;;;4.52;100.00
69630;BME280;56857;52.212;5.496;2023-04-08T05:33:06;102521.31;;;4.52;100.00
69630;BME280;56857;52.212;5.496;2023-04-08T05:35:31;102529.19;;;4.52;100.00
69630;BME280;56857;52.212;5.496;2023-04-08T05:37:57;102530.88;;;4.53;100.00
69630;BME280;56857;52.212;5.496;2023-04-08T05:40:22;102535.97;;;4.56;100.00
69630;BME280;56857;52.212;5.496;2023-04-08T05:42:47;102534.94;;;4.59;100.00
69630;BME280;56857;52.212;5.496;2023-04-08T05:45:13;102537.41;;;4.62;100.00
69630;BME280;56857;52.212;5.496;2023-04-08T05:47:38;102536.44;;;4.63;100.00
69630;BME280;56857;52.212;5.496;2023-04-08T05:50:07;102537.22;;;4.65;100.00
69630;BME280;56857;52.212;5.496;2023-04-08T05:52:32;102540.44;;;4.70;100.00
69630;BME280;56857;52.212;5.496;2023-04-08T05:54:58;102543.78;;;4.72;100.00
69630;BME280;56857;52.212;5.496;2023-04-08T05:57:23;102541.16;;;4.72;100.00
69630;BME280;56857;52.212;5.496;2023-04-08T05:59:49;102552.50;;;4.73;100.00
69630;BME280;56857;52.212;5.496;2023-04-08T06:02:14;102550.66;;;4.75;100.00
69630;BME280;56857;52.212;5.496;2023-04-08T06:04:39;102548.69;;;4.78;100.00
69630;BME280;56857;52.212;5.496;2023-04-08T06:07:04;102545.22;;;4.78;100.00
69630;BME280;56857;52.212;5.496;2023-04-08T06:09:33;102545.34;;;4.76;100.00
69630;BME280;56857;52.212;5.496;2023-04-08T06:11:59;102546.06;;;4.78;100.00
69630;BME280;56857;52.212;5.496;2023-04-08T06:14:24;102549.47;;;4.80;100.00
69630;BME280;56857;52.212;5.496;2023-04-08T06:16:49;102548.50;;;4.81;100.00
69630;BME280;56857;52.212;5.496;2023-04-08T06:19:15;102555.56;;;4.81;100.00
69630;BME280;56857;52.212;5.496;2023-04-08T06:21:40;102547.84;;;4.78;100.00
69630;BME280;56857;52.212;5.496;2023-04-08T06:24:05;102550.94;;;4.70;100.00
69630;BME280;56857;52.212;5.496;2023-04-08T06:26:31;102560.69;;;4.68;100.00
69630;BME280;56857;52.212;5.496;2023-04-08T06:28:56;102560.56;;;4.70;100.00
69630;BME280;56857;52.212;5.496;2023-04-08T06:31:21;102571.38;;;4.65;100.00
69630;BME280;56857;52.212;5.496;2023-04-08T06:33:47;102575.66;;;4.66;100.00
69630;BME280;56857;52.212;5.496;2023-04-08T06:36:12;102577.22;;;4.70;100.00
69630;BME280;56857;52.212;5.496;2023-04-08T06:38:38;102586.19;;;4.66;100.00
69630;BME280;56857;52.212;5.496;2023-04-08T06:41:04;102583.38;;;4.69;100.00
69630;BME280;56857;52.212;5.496;2023-04-08T06:43:30;102585.81;;;4.72;100.00
69630;BME280;56857;52.212;5.496;2023-04-08T06:45:56;102587.38;;;4.76;100.00
69630;BME280;56857;52.212;5.496;2023-04-08T06:48:21;102592.16;;;4.84;100.00
69630;BME280;56857;52.212;5.496;2023-04-08T06:50:46;102598.84;;;4.90;100.00
69630;BME280;56857;52.212;5.496;2023-04-08T06:53:11;102597.72;;;4.94;100.00
69630;BME280;56857;52.212;5.496;2023-04-08T06:55:43;102602.72;;;4.98;100.00
69630;BME280;56857;52.212;5.496;2023-04-08T06:58:17;102593.78;;;5.01;100.00
69630;BME280;56857;52.212;5.496;2023-04-08T07:00:43;102600.59;;;5.05;100.00
69630;BME280;56857;52.212;5.496;2023-04-08T07:03:08;102608.28;;;5.08;100.00
69630;BME280;56857;52.212;5.496;2023-04-08T07:05:37;102608.97;;;5.11;100.00
69630;BME280;56857;52.212;5.496;2023-04-08T07:08:02;102610.56;;;5.14;100.00
69630;BME280;56857;52.212;5.496;2023-04-08T07:10:27;102619.00;;;5.19;100.00
69630;BME280;56857;52.212;5.496;2023-04-08T07:12:53;102616.31;;;5.21;100.00
69630;BME280;56857;52.212;5.496;2023-04-08T07:15:18;102627.84;;;5.18;100.00
69630;BME280;56857;52.212;5.496;2023-04-08T07:17:44;102626.63;;;5.24;100.00
69630;BME280;56857;52.212;5.496;2023-04-08T07:20:09;102628.91;;;5.30;100.00
69630;BME280;56857;52.212;5.496;2023-04-08T07:22:35;102635.75;;;5.32;100.00
69630;BME280;56857;52.212;5.496;2023-04-08T07:25:00;102633.97;;;5.33;100.00
69630;BME280;56857;52.212;5.496;2023-04-08T07:27:28;102634.63;;;5.37;100.00
69630;BME280;56857;52.212;5.496;2023-04-08T07:29:54;102650.50;;;5.35;100.00
69630;BME280;56857;52.212;5.496;2023-04-08T07:32:19;102641.88;;;5.33;100.00
69630;BME280;56857;52.212;5.496;2023-04-08T07:34:45;102647.88;;;5.35;100.00
69630;BME280;56857;52.212;5.496;2023-04-08T07:37:10;102647.59;;;5.40;100.00
69630;BME280;56857;52.212;5.496;2023-04-08T07:39:35;102639.25;;;5.47;100.00
69630;BME280;56857;52.212;5.496;2023-04-08T07:42:01;102643.31;;;5.53;100.00
69630;BME280;56857;52.212;5.496;2023-04-08T07:44:26;102641.25;;;5.58;100.00
69630;BME280;56857;52.212;5.496;2023-04-08T07:46:51;102646.88;;;5.66;100.00
69630;BME280;56857;52.212;5.496;2023-04-08T07:49:16;102644.16;;;5.68;100.00
69630;BME280;56857;52.212;5.496;2023-04-08T07:51:46;102645.66;;;5.72;100.00
69630;BME280;56857;52.212;5.496;2023-04-08T07:54:11;102652.53;;;5.74;100.00
69630;BME280;56857;52.212;5.496;2023-04-08T07:56:37;102654.22;;;5.75;100.00
69630;BME280;56857;52.212;5.496;2023-04-08T07:59:02;102655.63;;;5.81;100.00
69630;BME280;56857;52.212;5.496;2023-04-08T08:01:28;102653.66;;;5.85;100.00
69630;BME280;56857;52.212;5.496;2023-04-08T08:03:53;102660.22;;;5.92;100.00
69630;BME280;56857;52.212;5.496;2023-04-08T08:06:18;102657.25;;;5.98;100.00
69630;BME280;56857;52.212;5.496;2023-04-08T08:08:44;102662.06;;;6.06;100.00
69630;BME280;56857;52.212;5.496;2023-04-08T08:11:09;102659.78;;;6.14;100.00
69630;BME280;56857;52.212;5.496;2023-04-08T08:13:34;102659.19;;;6.23;100.00
69630;BME280;56857;52.212;5.496;2023-04-08T08:16:00;102659.56;;;6.31;100.00
69630;BME280;56857;52.212;5.496;2023-04-08T08:18:25;102663.50;;;6.38;100.00
69630;BME280;56857;52.212;5.496;2023-04-08T08:20:50;102657.00;;;6.44;100.00
69630;BME280;56857;52.212;5.496;2023-04-08T08:23:16;102664.22;;;6.55;100.00
69630;BME280;56857;52.212;5.496;2023-04-08T08:25:41;102665.50;;;6.62;100.00
69630;BME280;56857;52.212;5.496;2023-04-08T08:28:07;102666.63;;;6.72;100.00
69630;BME280;56857;52.212;5.496;2023-04-08T08:30:33;102660.00;;;6.79;100.00
69630;BME280;56857;52.212;5.496;2023-04-08T08:32:58;102667.31;;;6.88;100.00
69630;BME280;56857;52.212;5.496;2023-04-08T08:35:23;102665.31;;;6.92;100.00
69630;BME280;56857;52.212;5.496;2023-04-08T08:37:49;102663.03;;;7.00;100.00
69630;BME280;56857;52.212;5.496;2023-04-08T08:40:14;102657.16;;;7.09;100.00
69630;BME280;56857;52.212;5.496;2023-04-08T08:42:40;102664.53;;;7.17;100.00
69630;BME280;56857;52.212;5.496;2023-04-08T08:45:06;102668.25;;;7.27;100.00
69630;BME280;56857;52.212;5.496;2023-04-08T08:47:31;102660.75;;;7.34;100.00
69630;BME280;56857;52.212;5.496;2023-04-08T08:49:57;102670.06;;;7.39;100.00
69630;BME280;56857;52.212;5.496;2023-04-08T08:52:22;102679.38;;;7.45;100.00
69630;BME280;56857;52.212;5.496;2023-04-08T08:54:58;102676.09;;;7.54;100.00
69630;BME280;56857;52.212;5.496;2023-04-08T08:57:24;102667.84;;;7.72;100.00
69630;BME280;56857;52.212;5.496;2023-04-08T08:59:49;102676.94;;;7.93;100.00
69630;BME280;56857;52.212;5.496;2023-04-08T09:02:27;102674.81;;;8.11;100.00
69630;BME280;56857;52.212;5.496;2023-04-08T09:05:00;102678.03;;;8.27;100.00
69630;BME280;56857;52.212;5.496;2023-04-08T09:07:27;102676.38;;;8.39;100.00
69630;BME280;56857;52.212;5.496;2023-04-08T09:09:55;102687.84;;;8.51;100.00
69630;BME280;56857;52.212;5.496;2023-04-08T09:12:21;102688.97;;;8.59;100.00
69630;BME280;56857;52.212;5.496;2023-04-08T09:14:47;102694.84;;;8.76;100.00
69630;BME280;56857;52.212;5.496;2023-04-08T09:17:13;102687.50;;;9.03;100.00
69630;BME280;56857;52.212;5.496;2023-04-08T09:19:39;102694.75;;;9.37;100.00
69630;BME280;56857;52.212;5.496;2023-04-08T09:22:09;102696.38;;;9.62;100.00
69630;BME280;56857;52.212;5.496;2023-04-08T09:24:36;102697.09;;;9.75;100.00
69630;BME280;56857;52.212;5.496;2023-04-08T09:27:03;102700.59;;;9.98;100.00
69630;BME280;56857;52.212;5.496;2023-04-08T09:29:28;102695.56;;;10.06;100.00
69630;BME280;56857;52.212;5.496;2023-04-08T09:31:57;102698.81;;;10.10;100.00
69630;BME280;56857;52.212;5.496;2023-04-08T09:34:24;102702.91;;;10.36;100.00
69630;BME280;56857;52.212;5.496;2023-04-08T09:36:53;102691.41;;;10.70;100.00
69630;BME280;56857;52.212;5.496;2023-04-08T09:39:20;102698.88;;;10.76;100.00
69630;BME280;56857;52.212;5.496;2023-04-08T09:41:48;102697.25;;;10.84;100.00
69630;BME280;56857;52.212;5.496;2023-04-08T09:44:14;102696.50;;;10.94;100.00
69630;BME280;56857;52.212;5.496;2023-04-08T09:46:55;102699.97;;;11.05;100.00
69630;BME280;56857;52.212;5.496;2023-04-08T09:51:57;102694.75;;;11.36;100.00
69630;BME280;56857;52.212;5.496;2023-04-08T09:54:30;102697.28;;;11.37;100.00
69630;BME280;56857;52.212;5.496;2023-04-08T09:57:04;102690.59;;;11.64;100.00
69630;BME280;56857;52.212;5.496;2023-04-08T09:59:35;102691.66;;;12.03;100.00
69630;BME280;56857;52.212;5.496;2023-04-08T10:02:06;102693.34;;;12.45;100.00
69630;BME280;56857;52.212;5.496;2023-04-08T10:04:38;102686.25;;;12.55;100.00
69630;BME280;56857;52.212;5.496;2023-04-08T10:07:07;102684.81;;;12.61;100.00
69630;BME280;56857;52.212;5.496;2023-04-08T10:09:33;102680.50;;;12.89;100.00
69630;BME280;56857;52.212;5.496;2023-04-08T10:12:03;102676.88;;;13.09;100.00
69630;BME280;56857;52.212;5.496;2023-04-08T10:14:29;102676.72;;;13.50;100.00
69630;BME280;56857;52.212;5.496;2023-04-08T10:17:25;102679.22;;;13.61;100.00
69630;BME280;56857;52.212;5.496;2023-04-08T10:19:51;102676.09;;;13.75;100.00
69630;BME280;56857;52.212;5.496;2023-04-08T10:27:42;102675.34;;;13.36;100.00
69630;BME280;56857;52.212;5.496;2023-04-08T10:32:55;102688.81;;;13.34;100.00
69630;BME280;56857;52.212;5.496;2023-04-08T10:35:40;102688.19;;;13.60;100.00
69630;BME280;56857;52.212;5.496;2023-04-08T10:38:06;102685.75;;;13.76;100.00
69630;BME280;56857;52.212;5.496;2023-04-08T10:40:39;102686.88;;;13.74;100.00
69630;BME280;56857;52.212;5.496;2023-04-08T10:43:05;102677.31;;;13.90;100.00
69630;BME280;56857;52.212;5.496;2023-04-08T10:45:30;102677.22;;;14.10;100.00
69630;BME280;56857;52.212;5.496;2023-04-08T10:48:12;102679.34;;;14.06;100.00
69630;BME280;56857;52.212;5.496;2023-04-08T10:50:37;102684.22;;;14.11;100.00
69630;BME280;56857;52.212;5.496;2023-04-08T10:53:04;102682.56;;;14.10;100.00
69630;BME280;56857;52.212;5.496;2023-04-08T10:55:29;102680.31;;;14.05;100.00
69630;BME280;56857;52.212;5.496;2023-04-08T10:58:04;102672.75;;;14.01;100.00
69630;BME280;56857;52.212;5.496;2023-04-08T11:00:38;102674.31;;;14.03;100.00
69630;BME280;56857;52.212;5.496;2023-04-08T11:03:06;102670.75;;;14.12;100.00
69630;BME280;56857;52.212;5.496;2023-04-08T11:05:32;102675.28;;;14.30;100.00
69630;BME280;56857;52.212;5.496;2023-04-08T11:07:58;102665.78;;;14.45;100.00
69630;BME280;56857;52.212;5.496;2023-04-08T11:10:25;102671.56;;;14.68;100.00
69630;BME280;56857;52.212;5.496;2023-04-08T11:12:52;102667.75;;;14.71;100.00
69630;BME280;56857;52.212;5.496;2023-04-08T11:15:18;102665.53;;;14.66;100.00
69630;BME280;56857;52.212;5.496;2023-04-08T11:17:44;102666.97;;;14.60;100.00
69630;BME280;56857;52.212;5.496;2023-04-08T11:20:09;102662.78;;;14.58;100.00
69630;BME280;56857;52.212;5.496;2023-04-08T11:22:35;102660.44;;;14.45;100.00
69630;BME280;56857;52.212;5.496;2023-04-08T11:25:01;102662.41;;;14.25;100.00
69630;BME280;56857;52.212;5.496;2023-04-08T11:27:27;102661.16;;;14.20;100.00
69630;BME280;56857;52.212;5.496;2023-04-08T11:29:55;102661.06;;;14.11;100.00
69630;BME280;56857;52.212;5.496;2023-04-08T11:32:21;102664.31;;;14.05;100.00
69630;BME280;56857;52.212;5.496;2023-04-08T11:34:48;102660.59;;;13.88;100.00
69630;BME280;56857;52.212;5.496;2023-04-08T11:37:15;102664.03;;;13.81;100.00
69630;BME280;56857;52.212;5.496;2023-04-08T11:39:44;102663.84;;;13.82;100.00
69630;BME280;56857;52.212;5.496;2023-04-08T11:42:28;102663.63;;;14.03;100.00
69630;BME280;56857;52.212;5.496;2023-04-08T11:44:55;102670.47;;;14.33;100.00
69630;BME280;56857;52.212;5.496;2023-04-08T11:47:20;102673.63;;;14.74;100.00
69630;BME280;56857;52.212;5.496;2023-04-08T11:49:47;102668.28;;;15.10;100.00
69630;BME280;56857;52.212;5.496;2023-04-08T11:52:13;102666.09;;;15.32;100.00
69630;BME280;56857;52.212;5.496;2023-04-08T11:54:42;102660.63;;;15.41;100.00
69630;BME280;56857;52.212;5.496;2023-04-08T11:57:08;102660.63;;;15.41;100.00
69630;BME280;56857;52.212;5.496;2023-04-08T11:59:33;102658.88;;;15.50;100.00
69630;BME280;56857;52.212;5.496;2023-04-08T12:02:00;102657.78;;;15.61;100.00
69630;BME280;56857;52.212;5.496;2023-04-08T12:04:25;102668.47;;;15.61;100.00
69630;BME280;56857;52.212;5.496;2023-04-08T12:06:51;102657.19;;;15.23;99.67
69630;BME280;56857;52.212;5.496;2023-04-08T12:09:16;102663.53;;;15.48;100.00
69630;BME280;56857;52.212;5.496;2023-04-08T12:11:41;102661.03;;;15.72;100.00
69630;BME280;56857;52.212;5.496;2023-04-08T12:14:07;102660.44;;;15.61;100.00
69630;BME280;56857;52.212;5.496;2023-04-08T12:16:32;102665.25;;;15.57;100.00
69630;BME280;56857;52.212;5.496;2023-04-08T12:18:58;102662.88;;;15.54;100.00
69630;BME280;56857;52.212;5.496;2023-04-08T12:21:23;102665.78;;;15.35;97.26
69630;BME280;56857;52.212;5.496;2023-04-08T12:23:49;102665.34;;;15.21;98.13
69630;BME280;56857;52.212;5.496;2023-04-08T12:26:14;102657.75;;;15.09;98.23
69630;BME280;56857;52.212;5.496;2023-04-08T12:28:40;102658.53;;;15.01;100.00
69630;BME280;56857;52.212;5.496;2023-04-08T12:31:05;102660.72;;;14.88;100.00
69630;BME280;56857;52.212;5.496;2023-04-08T12:33:30;102656.94;;;14.72;99.38
69630;BME280;56857;52.212;5.496;2023-04-08T12:35:56;102657.13;;;14.61;99.47
69630;BME280;56857;52.212;5.496;2023-04-08T12:38:21;102661.72;;;14.51;99.72
69630;BME280;56857;52.212;5.496;2023-04-08T12:40:47;102652.56;;;14.26;94.09
69630;BME280;56857;52.212;5.496;2023-04-08T12:43:12;102655.06;;;14.09;98.59
69630;BME280;56857;52.212;5.496;2023-04-08T12:45:37;102653.81;;;14.04;95.90
69630;BME280;56857;52.212;5.496;2023-04-08T12:48:03;102656.78;;;14.01;98.75
69630;BME280;56857;52.212;5.496;2023-04-08T12:50:28;102654.72;;;13.85;98.34
69630;BME280;56857;52.212;5.496;2023-04-08T12:52:53;102650.81;;;13.79;99.97
69630;BME280;56857;52.212;5.496;2023-04-08T12:55:19;102654.22;;;13.72;100.00
69630;BME280;56857;52.212;5.496;2023-04-08T12:57:44;102656.75;;;13.63;100.00
69630;BME280;56857;52.212;5.496;2023-04-08T13:00:10;102660.47;;;13.53;100.00